sensor_id;sensor_type;location;lat;lon;timestamp;temperature;humidity
5218;DHT22;26539;51.064;6.346;2024-01-10T00:00:15;-3.30;99.90
5218;DHT22;26539;51.064;6.346;2024-01-10T00:02:40;-3.30;99.90
5218;DHT22;26539;51.064;6.346;2024-01-10T00:05:06;-3.30;99.90
5218;DHT22;26539;51.064;6.346;2024-01-10T00:07:32;-3.30;99.90
5218;DHT22;26539;51.064;6.346;2024-01-10T00:09:57;-3.30;99.90
5218;DHT22;26539;51.064;6.346;2024-01-10T00:12:25;-3.40;99.90
5218;DHT22;26539;51.064;6.346;2024-01-10T00:14:50;-3.40;99.90
5218;DHT22;26539;51.064;6.346;2024-01-10T00:17:16;-3.40;99.90
5218;DHT22;26539;51.064;6.346;2024-01-10T00:19:41;-3.40;99.90
5218;DHT22;26539;51.064;6.346;2024-01-10T00:22:07;-3.50;99.90
5218;DHT22;26539;51.064;6.346;2024-01-10T00:24:32;-3.50;99.90
5218;DHT22;26539;51.064;6.346;2024-01-10T00:27:01;-3.60;99.90
5218;DHT22;26539;51.064;6.346;2024-01-10T00:29:29;-3.60;99.90
5218;DHT22;26539;51.064;6.346;2024-01-10T00:31:54;-3.70;99.90
5218;DHT22;26539;51.064;6.346;2024-01-10T00:34:24;-3.70;99.90
5218;DHT22;26539;51.064;6.346;2024-01-10T00:36:50;-3.80;99.90
5218;DHT22;26539;51.064;6.346;2024-01-10T00:39:15;-3.80;99.90
5218;DHT22;26539;51.064;6.346;2024-01-10T00:41:41;-3.80;99.90
5218;DHT22;26539;51.064;6.346;2024-01-10T00:44:06;-3.80;99.90
5218;DHT22;26539;51.064;6.346;2024-01-10T00:46:32;-3.80;99.90
5218;DHT22;26539;51.064;6.346;2024-01-10T00:48:57;-3.90;99.90
5218;DHT22;26539;51.064;6.346;2024-01-10T00:51:23;-3.90;99.90
5218;DHT22;26539;51.064;6.346;2024-01-10T00:53:48;-3.90;99.90
5218;DHT22;26539;51.064;6.346;2024-01-10T00:56:14;-3.90;99.90
5218;DHT22;26539;51.064;6.346;2024-01-10T00:58:40;-3.90;99.90
5218;DHT22;26539;51.064;6.346;2024-01-10T01:01:09;-3.90;99.90
5218;DHT22;26539;51.064;6.346;2024-01-10T01:03:35;-3.90;99.90
5218;DHT22;26539;51.064;6.346;2024-01-10T01:06:01;-3.90;99.90
5218;DHT22;26539;51.064;6.346;2024-01-10T01:08:27;-4.00;99.90
5218;DHT22;26539;51.064;6.346;2024-01-10T01:10:55;-4.00;99.90
5218;DHT22;26539;51.064;6.346;2024-01-10T01:13:21;-3.90;99.90
5218;DHT22;26539;51.064;6.346;2024-01-10T01:15:46;-4.00;99.90
5218;DHT22;26539;51.064;6.346;2024-01-10T01:18:12;-4.00;99.90
5218;DHT22;26539;51.064;6.346;2024-01-10T01:20:38;-4.10;99.90
5218;DHT22;26539;51.064;6.346;2024-01-10T01:23:04;-4.00;99.90
5218;DHT22;26539;51.064;6.346;2024-01-10T01:25:29;-4.10;99.90
5218;DHT22;26539;51.064;6.346;2024-01-10T01:27:55;-4.00;99.90
5218;DHT22;26539;51.064;6.346;2024-01-10T01:30:23;-4.00;99.90
5218;DHT22;26539;51.064;6.346;2024-01-10T01:32:49;-3.90;99.90
5218;DHT22;26539;51.064;6.346;2024-01-10T01:35:15;-3.90;99.90
5218;DHT22;26539;51.064;6.346;2024-01-10T01:37:46;-3.90;99.90
5218;DHT22;26539;51.064;6.346;2024-01-10T01:40:12;-3.90;99.90
5218;DHT22;26539;51.064;6.346;2024-01-10T01:42:38;-3.80;99.90
5218;DHT22;26539;51.064;6.346;2024-01-10T01:45:03;-3.80;99.90
5218;DHT22;26539;51.064;6.346;2024-01-10T01:47:32;-3.80;99.90
5218;DHT22;26539;51.064;6.346;2024-01-10T01:49:57;-3.80;99.90
5218;DHT22;26539;51.064;6.346;2024-01-10T01:52:24;-3.80;99.90
5218;DHT22;26539;51.064;6.346;2024-01-10T01:54:50;-3.90;99.90
5218;DHT22;26539;51.064;6.346;2024-01-10T01:57:15;-3.90;99.90
5218;DHT22;26539;51.064;6.346;2024-01-10T01:59:41;-3.90;99.90
5218;DHT22;26539;51.064;6.346;2024-01-10T02:02:07;-3.90;99.90
5218;DHT22;26539;51.064;6.346;2024-01-10T02:04:33;-3.90;99.90
5218;DHT22;26539;51.064;6.346;2024-01-10T02:06:59;-3.90;99.90
5218;DHT22;26539;51.064;6.346;2024-01-10T02:09:25;-3.90;99.90
5218;DHT22;26539;51.064;6.346;2024-01-10T02:11:51;-3.90;99.90
5218;DHT22;26539;51.064;6.346;2024-01-10T02:14:17;-3.90;99.90
5218;DHT22;26539;51.064;6.346;2024-01-10T02:16:43;-4.00;99.90
5218;DHT22;26539;51.064;6.346;2024-01-10T02:19:21;-4.00;99.90
5218;DHT22;26539;51.064;6.346;2024-01-10T02:21:47;-4.00;99.90
5218;DHT22;26539;51.064;6.346;2024-01-10T02:24:13;-4.00;99.90
5218;DHT22;26539;51.064;6.346;2024-01-10T02:26:39;-4.00;99.90
5218;DHT22;26539;51.064;6.346;2024-01-10T02:29:05;-4.00;99.90
5218;DHT22;26539;51.064;6.346;2024-01-10T02:31:30;-4.00;99.90
5218;DHT22;26539;51.064;6.346;2024-01-10T02:33:56;-4.10;99.90
5218;DHT22;26539;51.064;6.346;2024-01-10T02:36:24;-4.10;99.90
5218;DHT22;26539;51.064;6.346;2024-01-10T02:38:50;-4.10;99.90
5218;DHT22;26539;51.064;6.346;2024-01-10T02:41:33;-4.10;99.90
5218;DHT22;26539;51.064;6.346;2024-01-10T02:44:20;-4.10;99.90
5218;DHT22;26539;51.064;6.346;2024-01-10T02:46:47;-4.10;99.90
5218;DHT22;26539;51.064;6.346;2024-01-10T02:49:13;-4.10;99.90
5218;DHT22;26539;51.064;6.346;2024-01-10T02:51:38;-4.20;99.90
5218;DHT22;26539;51.064;6.346;2024-01-10T02:54:27;-4.20;99.90
5218;DHT22;26539;51.064;6.346;2024-01-10T02:56:53;-4.20;99.90
5218;DHT22;26539;51.064;6.346;2024-01-10T02:59:18;-4.20;99.90
5218;DHT22;26539;51.064;6.346;2024-01-10T03:01:47;-4.20;99.90
5218;DHT22;26539;51.064;6.346;2024-01-10T03:04:16;-4.20;99.90
5218;DHT22;26539;51.064;6.346;2024-01-10T03:06:58;-4.20;99.90
5218;DHT22;26539;51.064;6.346;2024-01-10T03:09:45;-4.20;99.90
5218;DHT22;26539;51.064;6.346;2024-01-10T03:12:46;-4.20;99.90
5218;DHT22;26539;51.064;6.346;2024-01-10T03:15:14;-4.20;99.90
5218;DHT22;26539;51.064;6.346;2024-01-10T03:17:53;-4.20;99.90
5218;DHT22;26539;51.064;6.346;2024-01-10T03:20:19;-4.20;99.90
5218;DHT22;26539;51.064;6.346;2024-01-10T03:23:05;-4.30;99.90
5218;DHT22;26539;51.064;6.346;2024-01-10T03:25:57;-4.30;1.00
5218;DHT22;26539;51.064;6.346;2024-01-10T03:28:26;-4.30;1.00
5218;DHT22;26539;51.064;6.346;2024-01-10T03:30:55;-4.30;1.00
5218;DHT22;26539;51.064;6.346;2024-01-10T03:33:20;-4.30;1.00
5218;DHT22;26539;51.064;6.346;2024-01-10T03:35:46;-4.30;1.00
5218;DHT22;26539;51.064;6.346;2024-01-10T03:38:12;-4.30;1.00
5218;DHT22;26539;51.064;6.346;2024-01-10T03:40:37;-4.40;1.00
5218;DHT22;26539;51.064;6.346;2024-01-10T03:43:09;-4.40;99.90
5218;DHT22;26539;51.064;6.346;2024-01-10T03:45:38;-4.40;99.90
5218;DHT22;26539;51.064;6.346;2024-01-10T03:48:07;-4.40;99.90
5218;DHT22;26539;51.064;6.346;2024-01-10T03:50:32;-4.40;99.90
5218;DHT22;26539;51.064;6.346;2024-01-10T03:53:06;-4.40;99.90
5218;DHT22;26539;51.064;6.346;2024-01-10T03:55:34;-4.40;99.90
5218;DHT22;26539;51.064;6.346;2024-01-10T03:58:00;-4.40;99.90
5218;DHT22;26539;51.064;6.346;2024-01-10T04:00:28;-4.40;99.90
5218;DHT22;26539;51.064;6.346;2024-01-10T04:02:54;-4.40;99.90
5218;DHT22;26539;51.064;6.346;2024-01-10T04:05:22;-4.40;99.90
5218;DHT22;26539;51.064;6.346;2024-01-10T04:07:54;-4.40;99.90
5218;DHT22;26539;51.064;6.346;2024-01-10T04:10:22;-4.50;99.90
5218;DHT22;26539;51.064;6.346;2024-01-10T04:12:48;-4.50;99.90
5218;DHT22;26539;51.064;6.346;2024-01-10T04:15:16;-4.50;99.90
5218;DHT22;26539;51.064;6.346;2024-01-10T04:17:43;-4.50;99.90
5218;DHT22;26539;51.064;6.346;2024-01-10T04:20:13;-4.60;99.90
5218;DHT22;26539;51.064;6.346;2024-01-10T04:22:39;-4.60;99.90
5218;DHT22;26539;51.064;6.346;2024-01-10T04:25:06;-4.60;99.90
5218;DHT22;26539;51.064;6.346;2024-01-10T04:27:32;-4.60;99.90
5218;DHT22;26539;51.064;6.346;2024-01-10T04:29:58;-4.60;99.90
5218;DHT22;26539;51.064;6.346;2024-01-10T04:32:24;-4.60;1.00
5218;DHT22;26539;51.064;6.346;2024-01-10T04:34:50;-4.60;1.00
5218;DHT22;26539;51.064;6.346;2024-01-10T04:37:16;-4.60;1.00
5218;DHT22;26539;51.064;6.346;2024-01-10T04:39:41;-4.60;1.00
5218;DHT22;26539;51.064;6.346;2024-01-10T04:42:10;-4.60;1.00
5218;DHT22;26539;51.064;6.346;2024-01-10T04:44:36;-4.60;99.90
5218;DHT22;26539;51.064;6.346;2024-01-10T04:47:03;-4.50;99.90
5218;DHT22;26539;51.064;6.346;2024-01-10T04:49:28;-4.50;99.90
5218;DHT22;26539;51.064;6.346;2024-01-10T04:51:54;-4.50;99.90
5218;DHT22;26539;51.064;6.346;2024-01-10T04:54:19;-4.50;99.90
5218;DHT22;26539;51.064;6.346;2024-01-10T04:56:46;-4.50;1.00
5218;DHT22;26539;51.064;6.346;2024-01-10T04:59:11;-4.50;1.00
5218;DHT22;26539;51.064;6.346;2024-01-10T05:01:37;-4.50;99.90
5218;DHT22;26539;51.064;6.346;2024-01-10T05:04:03;-4.50;99.90
5218;DHT22;26539;51.064;6.346;2024-01-10T05:06:31;-4.50;99.90
5218;DHT22;26539;51.064;6.346;2024-01-10T05:08:57;-4.50;99.90
5218;DHT22;26539;51.064;6.346;2024-01-10T05:11:24;-4.50;99.90
5218;DHT22;26539;51.064;6.346;2024-01-10T05:13:51;-4.50;99.90
5218;DHT22;26539;51.064;6.346;2024-01-10T05:16:19;-4.50;99.90
5218;DHT22;26539;51.064;6.346;2024-01-10T05:18:45;-4.50;99.90
5218;DHT22;26539;51.064;6.346;2024-01-10T05:21:13;-4.50;99.90
5218;DHT22;26539;51.064;6.346;2024-01-10T05:23:38;-4.50;99.90
5218;DHT22;26539;51.064;6.346;2024-01-10T05:26:05;-4.50;1.00
5218;DHT22;26539;51.064;6.346;2024-01-10T05:28:31;-4.50;1.00
5218;DHT22;26539;51.064;6.346;2024-01-10T05:30:58;-4.50;1.00
5218;DHT22;26539;51.064;6.346;2024-01-10T05:33:24;-4.50;1.00
5218;DHT22;26539;51.064;6.346;2024-01-10T05:35:49;-4.50;1.00
5218;DHT22;26539;51.064;6.346;2024-01-10T05:38:15;-4.50;1.00
5218;DHT22;26539;51.064;6.346;2024-01-10T05:40:40;-4.50;1.00
5218;DHT22;26539;51.064;6.346;2024-01-10T05:43:06;-4.50;1.00
5218;DHT22;26539;51.064;6.346;2024-01-10T05:45:32;-4.50;1.00
5218;DHT22;26539;51.064;6.346;2024-01-10T05:47:59;-4.50;1.00
5218;DHT22;26539;51.064;6.346;2024-01-10T05:50:24;-4.50;99.90
5218;DHT22;26539;51.064;6.346;2024-01-10T05:52:50;-4.50;99.90
5218;DHT22;26539;51.064;6.346;2024-01-10T05:55:15;-4.50;99.90
5218;DHT22;26539;51.064;6.346;2024-01-10T05:57:41;-4.50;1.00
5218;DHT22;26539;51.064;6.346;2024-01-10T06:00:07;-4.60;1.00
5218;DHT22;26539;51.064;6.346;2024-01-10T06:02:41;-4.60;1.00
5218;DHT22;26539;51.064;6.346;2024-01-10T06:05:08;-4.60;1.00
5218;DHT22;26539;51.064;6.346;2024-01-10T06:07:35;-4.60;1.00
5218;DHT22;26539;51.064;6.346;2024-01-10T06:10:00;-4.60;1.00
5218;DHT22;26539;51.064;6.346;2024-01-10T06:12:27;-4.60;1.00
5218;DHT22;26539;51.064;6.346;2024-01-10T06:14:53;-4.60;1.00
5218;DHT22;26539;51.064;6.346;2024-01-10T06:17:19;-4.60;1.00
5218;DHT22;26539;51.064;6.346;2024-01-10T06:19:44;-4.60;1.00
5218;DHT22;26539;51.064;6.346;2024-01-10T06:22:10;-4.60;1.00
5218;DHT22;26539;51.064;6.346;2024-01-10T06:24:36;-4.60;1.00
5218;DHT22;26539;51.064;6.346;2024-01-10T06:27:05;-4.60;1.00
5218;DHT22;26539;51.064;6.346;2024-01-10T06:29:31;-4.50;1.00
5218;DHT22;26539;51.064;6.346;2024-01-10T06:31:58;-4.50;1.00
5218;DHT22;26539;51.064;6.346;2024-01-10T06:34:24;-4.50;1.00
5218;DHT22;26539;51.064;6.346;2024-01-10T06:36:49;-4.50;1.00
5218;DHT22;26539;51.064;6.346;2024-01-10T06:39:15;-4.50;1.00
5218;DHT22;26539;51.064;6.346;2024-01-10T06:41:42;-4.50;1.00
5218;DHT22;26539;51.064;6.346;2024-01-10T06:44:08;-4.50;1.00
5218;DHT22;26539;51.064;6.346;2024-01-10T06:46:34;-4.60;1.00
5218;DHT22;26539;51.064;6.346;2024-01-10T06:48:59;-4.60;1.00
5218;DHT22;26539;51.064;6.346;2024-01-10T06:51:25;-4.60;1.00
5218;DHT22;26539;51.064;6.346;2024-01-10T06:53:52;-4.60;1.00
5218;DHT22;26539;51.064;6.346;2024-01-10T06:56:17;-4.60;1.00
5218;DHT22;26539;51.064;6.346;2024-01-10T06:58:43;-4.60;1.00
5218;DHT22;26539;51.064;6.346;2024-01-10T07:01:13;-4.60;1.00
5218;DHT22;26539;51.064;6.346;2024-01-10T07:03:40;-4.60;1.00
5218;DHT22;26539;51.064;6.346;2024-01-10T07:06:05;-4.60;1.00
5218;DHT22;26539;51.064;6.346;2024-01-10T07:08:31;-4.60;1.00
5218;DHT22;26539;51.064;6.346;2024-01-10T07:10:57;-4.50;1.00
5218;DHT22;26539;51.064;6.346;2024-01-10T07:13:22;-4.50;1.00
5218;DHT22;26539;51.064;6.346;2024-01-10T07:15:48;-4.50;1.00
5218;DHT22;26539;51.064;6.346;2024-01-10T07:18:16;-4.60;1.00
5218;DHT22;26539;51.064;6.346;2024-01-10T07:20:41;-4.60;1.00
5218;DHT22;26539;51.064;6.346;2024-01-10T07:23:07;-4.60;1.00
5218;DHT22;26539;51.064;6.346;2024-01-10T07:25:32;-4.60;1.00
5218;DHT22;26539;51.064;6.346;2024-01-10T07:27:59;-4.60;1.00
5218;DHT22;26539;51.064;6.346;2024-01-10T07:30:24;-4.50;1.00
5218;DHT22;26539;51.064;6.346;2024-01-10T07:32:50;-4.50;1.00
5218;DHT22;26539;51.064;6.346;2024-01-10T07:35:15;-4.50;1.00
5218;DHT22;26539;51.064;6.346;2024-01-10T07:37:41;-4.40;1.00
5218;DHT22;26539;51.064;6.346;2024-01-10T07:40:08;-4.20;1.00
5218;DHT22;26539;51.064;6.346;2024-01-10T07:42:36;-4.20;1.00
5218;DHT22;26539;51.064;6.346;2024-01-10T07:45:03;-4.10;1.00
5218;DHT22;26539;51.064;6.346;2024-01-10T07:47:30;-4.00;1.00
5218;DHT22;26539;51.064;6.346;2024-01-10T07:49:56;-3.90;1.00
5218;DHT22;26539;51.064;6.346;2024-01-10T07:52:21;-3.90;1.00
5218;DHT22;26539;51.064;6.346;2024-01-10T07:54:47;-3.80;1.00
5218;DHT22;26539;51.064;6.346;2024-01-10T07:57:13;-3.80;1.00
5218;DHT22;26539;51.064;6.346;2024-01-10T07:59:39;-3.80;1.00
5218;DHT22;26539;51.064;6.346;2024-01-10T08:02:04;-3.70;1.00
5218;DHT22;26539;51.064;6.346;2024-01-10T08:04:30;-3.70;1.00
5218;DHT22;26539;51.064;6.346;2024-01-10T08:06:55;-3.60;1.00
5218;DHT22;26539;51.064;6.346;2024-01-10T08:09:21;-3.60;1.00
5218;DHT22;26539;51.064;6.346;2024-01-10T08:11:48;-3.60;1.00
5218;DHT22;26539;51.064;6.346;2024-01-10T08:14:14;-3.50;1.00
5218;DHT22;26539;51.064;6.346;2024-01-10T08:16:41;-3.40;1.00
5218;DHT22;26539;51.064;6.346;2024-01-10T08:19:06;-3.40;1.00
5218;DHT22;26539;51.064;6.346;2024-01-10T08:21:32;-3.30;99.90
5218;DHT22;26539;51.064;6.346;2024-01-10T08:23:57;-3.30;99.90
5218;DHT22;26539;51.064;6.346;2024-01-10T08:26:23;-3.10;1.00
5218;DHT22;26539;51.064;6.346;2024-01-10T08:28:48;-2.80;99.90
5218;DHT22;26539;51.064;6.346;2024-01-10T08:31:16;-2.40;99.90
5218;DHT22;26539;51.064;6.346;2024-01-10T08:33:42;-1.80;99.90
5218;DHT22;26539;51.064;6.346;2024-01-10T08:36:07;-1.20;99.90
5218;DHT22;26539;51.064;6.346;2024-01-10T08:38:35;-0.60;99.90
5218;DHT22;26539;51.064;6.346;2024-01-10T08:41:01;0.00;99.90
5218;DHT22;26539;51.064;6.346;2024-01-10T08:43:27;0.30;99.90
5218;DHT22;26539;51.064;6.346;2024-01-10T08:45:52;0.40;99.90
5218;DHT22;26539;51.064;6.346;2024-01-10T08:48:18;0.50;99.90
5218;DHT22;26539;51.064;6.346;2024-01-10T08:50:43;0.60;99.90
5218;DHT22;26539;51.064;6.346;2024-01-10T08:53:10;0.90;99.90
5218;DHT22;26539;51.064;6.346;2024-01-10T08:55:36;1.50;99.90
5218;DHT22;26539;51.064;6.346;2024-01-10T08:58:03;1.60;99.90
5218;DHT22;26539;51.064;6.346;2024-01-10T09:00:28;1.70;99.90
5218;DHT22;26539;51.064;6.346;2024-01-10T09:02:55;1.60;99.90
5218;DHT22;26539;51.064;6.346;2024-01-10T09:05:20;1.60;99.90
5218;DHT22;26539;51.064;6.346;2024-01-10T09:07:47;1.50;99.90
5218;DHT22;26539;51.064;6.346;2024-01-10T09:10:12;1.20;99.90
5218;DHT22;26539;51.064;6.346;2024-01-10T09:12:38;0.90;99.90
5218;DHT22;26539;51.064;6.346;2024-01-10T09:15:04;0.60;99.90
5218;DHT22;26539;51.064;6.346;2024-01-10T09:17:29;0.10;99.90
5218;DHT22;26539;51.064;6.346;2024-01-10T09:19:55;-0.30;99.90
5218;DHT22;26539;51.064;6.346;2024-01-10T09:22:20;-0.60;99.90
5218;DHT22;26539;51.064;6.346;2024-01-10T09:24:46;-0.90;99.90
5218;DHT22;26539;51.064;6.346;2024-01-10T09:27:12;-1.10;99.90
5218;DHT22;26539;51.064;6.346;2024-01-10T09:29:37;-1.30;99.90
5218;DHT22;26539;51.064;6.346;2024-01-10T09:32:03;-1.40;99.90
5218;DHT22;26539;51.064;6.346;2024-01-10T09:34:29;-1.50;99.90
5218;DHT22;26539;51.064;6.346;2024-01-10T09:36:54;-1.60;99.90
5218;DHT22;26539;51.064;6.346;2024-01-10T09:39:20;-1.70;99.90
5218;DHT22;26539;51.064;6.346;2024-01-10T09:41:47;-1.80;99.90
5218;DHT22;26539;51.064;6.346;2024-01-10T09:44:20;-1.70;99.90
5218;DHT22;26539;51.064;6.346;2024-01-10T09:46:50;-1.90;99.90
5218;DHT22;26539;51.064;6.346;2024-01-10T09:49:17;-1.90;99.90
5218;DHT22;26539;51.064;6.346;2024-01-10T09:51:42;-2.00;99.90
5218;DHT22;26539;51.064;6.346;2024-01-10T09:54:08;-2.00;99.90
5218;DHT22;26539;51.064;6.346;2024-01-10T09:56:34;-1.90;99.90
5218;DHT22;26539;51.064;6.346;2024-01-10T09:59:01;-1.80;99.90
5218;DHT22;26539;51.064;6.346;2024-01-10T10:01:30;-1.80;99.90
5218;DHT22;26539;51.064;6.346;2024-01-10T10:03:56;-1.90;99.90
5218;DHT22;26539;51.064;6.346;2024-01-10T10:06:22;-1.80;99.90
5218;DHT22;26539;51.064;6.346;2024-01-10T10:08:48;-1.70;99.90
5218;DHT22;26539;51.064;6.346;2024-01-10T10:11:13;-1.80;99.90
5218;DHT22;26539;51.064;6.346;2024-01-10T10:13:40;-1.70;99.90
5218;DHT22;26539;51.064;6.346;2024-01-10T10:16:08;-1.70;99.90
5218;DHT22;26539;51.064;6.346;2024-01-10T10:18:35;-1.60;99.90
5218;DHT22;26539;51.064;6.346;2024-01-10T10:21:10;-1.70;99.90
5218;DHT22;26539;51.064;6.346;2024-01-10T10:23:37;-1.50;99.90
5218;DHT22;26539;51.064;6.346;2024-01-10T10:26:14;-1.40;99.90
5218;DHT22;26539;51.064;6.346;2024-01-10T10:28:49;-1.20;99.90
5218;DHT22;26539;51.064;6.346;2024-01-10T10:31:16;-1.20;99.90
5218;DHT22;26539;51.064;6.346;2024-01-10T10:33:42;-1.00;99.90
5218;DHT22;26539;51.064;6.346;2024-01-10T10:36:08;-0.90;99.90
5218;DHT22;26539;51.064;6.346;2024-01-10T10:38:35;-0.80;99.90
5218;DHT22;26539;51.064;6.346;2024-01-10T10:41:05;-0.80;99.90
5218;DHT22;26539;51.064;6.346;2024-01-10T10:43:34;-0.90;99.90
5218;DHT22;26539;51.064;6.346;2024-01-10T10:46:08;-0.70;99.90
5218;DHT22;26539;51.064;6.346;2024-01-10T10:48:36;-0.60;99.90
5218;DHT22;26539;51.064;6.346;2024-01-10T10:51:13;-0.80;99.90
5218;DHT22;26539;51.064;6.346;2024-01-10T10:53:42;-0.90;99.90
5218;DHT22;26539;51.064;6.346;2024-01-10T10:56:11;-0.90;99.90
5218;DHT22;26539;51.064;6.346;2024-01-10T10:58:43;-0.80;99.90
5218;DHT22;26539;51.064;6.346;2024-01-10T11:01:13;-0.90;99.90
5218;DHT22;26539;51.064;6.346;2024-01-10T11:03:40;-0.70;99.90
5218;DHT22;26539;51.064;6.346;2024-01-10T11:06:07;-0.70;99.90
5218;DHT22;26539;51.064;6.346;2024-01-10T11:11:35;-0.70;99.90
5218;DHT22;26539;51.064;6.346;2024-01-10T11:24:37;-0.70;99.90
5218;DHT22;26539;51.064;6.346;2024-01-10T11:27:07;-0.60;99.90
5218;DHT22;26539;51.064;6.346;2024-01-10T11:29:37;-0.70;99.90
5218;DHT22;26539;51.064;6.346;2024-01-10T11:32:05;-0.50;99.90
5218;DHT22;26539;51.064;6.346;2024-01-10T11:34:31;0.10;99.90
5218;DHT22;26539;51.064;6.346;2024-01-10T11:37:09;0.70;99.90
5218;DHT22;26539;51.064;6.346;2024-01-10T11:39:36;1.20;99.90
5218;DHT22;26539;51.064;6.346;2024-01-10T11:42:02;1.90;99.90
5218;DHT22;26539;51.064;6.346;2024-01-10T11:44:28;2.70;99.90
5218;DHT22;26539;51.064;6.346;2024-01-10T11:46:56;3.30;99.90
5218;DHT22;26539;51.064;6.346;2024-01-10T11:49:22;3.60;99.90
5218;DHT22;26539;51.064;6.346;2024-01-10T11:51:50;4.10;99.90
5218;DHT22;26539;51.064;6.346;2024-01-10T11:57:13;5.60;99.90
5218;DHT22;26539;51.064;6.346;2024-01-10T11:59:41;6.00;99.90
5218;DHT22;26539;51.064;6.346;2024-01-10T12:02:07;6.40;99.90
5218;DHT22;26539;51.064;6.346;2024-01-10T12:04:33;6.40;99.90
5218;DHT22;26539;51.064;6.346;2024-01-10T12:07:02;5.70;99.90
5218;DHT22;26539;51.064;6.346;2024-01-10T12:09:27;5.10;99.90
5218;DHT22;26539;51.064;6.346;2024-01-10T12:11:53;4.40;99.90
5218;DHT22;26539;51.064;6.346;2024-01-10T12:14:18;4.20;99.90
5218;DHT22;26539;51.064;6.346;2024-01-10T12:16:46;3.20;99.90
5218;DHT22;26539;51.064;6.346;2024-01-10T12:19:12;3.10;99.90
5218;DHT22;26539;51.064;6.346;2024-01-10T12:21:37;3.10;99.90
5218;DHT22;26539;51.064;6.346;2024-01-10T12:24:06;3.00;99.90
5218;DHT22;26539;51.064;6.346;2024-01-10T12:26:32;2.90;99.90
5218;DHT22;26539;51.064;6.346;2024-01-10T12:28:59;2.80;99.90
5218;DHT22;26539;51.064;6.346;2024-01-10T12:31:28;2.70;99.90
5218;DHT22;26539;51.064;6.346;2024-01-10T12:33:58;2.70;99.90
5218;DHT22;26539;51.064;6.346;2024-01-10T12:36:25;2.40;99.90
5218;DHT22;26539;51.064;6.346;2024-01-10T12:38:50;2.40;99.90
5218;DHT22;26539;51.064;6.346;2024-01-10T12:41:17;2.50;99.90
5218;DHT22;26539;51.064;6.346;2024-01-10T12:43:43;2.30;99.90
5218;DHT22;26539;51.064;6.346;2024-01-10T12:46:10;2.30;99.90
5218;DHT22;26539;51.064;6.346;2024-01-10T12:48:37;2.20;99.90
5218;DHT22;26539;51.064;6.346;2024-01-10T12:51:04;2.40;99.90
5218;DHT22;26539;51.064;6.346;2024-01-10T12:53:43;2.40;99.90
5218;DHT22;26539;51.064;6.346;2024-01-10T12:56:10;2.50;99.90
5218;DHT22;26539;51.064;6.346;2024-01-10T12:58:40;2.60;99.90
5218;DHT22;26539;51.064;6.346;2024-01-10T13:01:08;2.40;99.90
5218;DHT22;26539;51.064;6.346;2024-01-10T13:03:33;2.20;99.90
5218;DHT22;26539;51.064;6.346;2024-01-10T13:05:59;2.10;99.90
5218;DHT22;26539;51.064;6.346;2024-01-10T13:08:25;2.10;99.90
5218;DHT22;26539;51.064;6.346;2024-01-10T13:10:50;1.80;99.90
5218;DHT22;26539;51.064;6.346;2024-01-10T13:13:16;1.90;99.90
5218;DHT22;26539;51.064;6.346;2024-01-10T13:15:43;1.90;99.90
5218;DHT22;26539;51.064;6.346;2024-01-10T13:18:10;1.80;99.90
5218;DHT22;26539;51.064;6.346;2024-01-10T13:20:36;2.00;99.90
5218;DHT22;26539;51.064;6.346;2024-01-10T13:23:03;2.00;99.90
5218;DHT22;26539;51.064;6.346;2024-01-10T13:25:29;1.90;99.90
5218;DHT22;26539;51.064;6.346;2024-01-10T13:27:54;1.80;99.90
5218;DHT22;26539;51.064;6.346;2024-01-10T13:30:20;1.70;99.90
5218;DHT22;26539;51.064;6.346;2024-01-10T13:32:46;1.70;99.90
5218;DHT22;26539;51.064;6.346;2024-01-10T13:35:15;1.60;99.90
5218;DHT22;26539;51.064;6.346;2024-01-10T13:37:45;1.60;99.90
5218;DHT22;26539;51.064;6.346;2024-01-10T13:40:11;1.70;99.90
5218;DHT22;26539;51.064;6.346;2024-01-10T13:42:40;1.50;99.90
5218;DHT22;26539;51.064;6.346;2024-01-10T13:45:07;1.50;99.90
5218;DHT22;26539;51.064;6.346;2024-01-10T13:47:34;1.40;99.90
5218;DHT22;26539;51.064;6.346;2024-01-10T13:50:00;1.30;99.90
5218;DHT22;26539;51.064;6.346;2024-01-10T13:52:26;1.10;99.90
5218;DHT22;26539;51.064;6.346;2024-01-10T13:54:52;1.40;99.90
5218;DHT22;26539;51.064;6.346;2024-01-10T13:57:18;1.30;99.90
5218;DHT22;26539;51.064;6.346;2024-01-10T13:59:43;1.20;99.90
5218;DHT22;26539;51.064;6.346;2024-01-10T14:02:10;1.20;99.90
5218;DHT22;26539;51.064;6.346;2024-01-10T14:04:36;1.30;99.90
5218;DHT22;26539;51.064;6.346;2024-01-10T14:07:01;1.60;99.90
5218;DHT22;26539;51.064;6.346;2024-01-10T14:09:29;1.90;99.90
5218;DHT22;26539;51.064;6.346;2024-01-10T14:11:55;1.90;99.90
5218;DHT22;26539;51.064;6.346;2024-01-10T14:14:20;2.10;99.90
5218;DHT22;26539;51.064;6.346;2024-01-10T14:16:46;2.40;99.90
5218;DHT22;26539;51.064;6.346;2024-01-10T14:19:12;2.50;99.90
5218;DHT22;26539;51.064;6.346;2024-01-10T14:21:37;2.50;99.90
5218;DHT22;26539;51.064;6.346;2024-01-10T14:24:03;2.40;99.90
5218;DHT22;26539;51.064;6.346;2024-01-10T14:26:28;2.30;99.90
5218;DHT22;26539;51.064;6.346;2024-01-10T14:28:54;2.40;99.90
5218;DHT22;26539;51.064;6.346;2024-01-10T14:31:22;2.60;99.90
5218;DHT22;26539;51.064;6.346;2024-01-10T14:33:48;2.70;99.90
5218;DHT22;26539;51.064;6.346;2024-01-10T14:36:14;2.60;99.90
5218;DHT22;26539;51.064;6.346;2024-01-10T14:38:39;2.30;99.90
5218;DHT22;26539;51.064;6.346;2024-01-10T14:41:06;2.00;99.90
5218;DHT22;26539;51.064;6.346;2024-01-10T14:43:32;2.00;99.90
5218;DHT22;26539;51.064;6.346;2024-01-10T14:45:57;1.80;99.90
5218;DHT22;26539;51.064;6.346;2024-01-10T14:48:23;1.80;99.90
5218;DHT22;26539;51.064;6.346;2024-01-10T14:50:49;1.70;99.90
5218;DHT22;26539;51.064;6.346;2024-01-10T14:53:14;1.70;99.90
5218;DHT22;26539;51.064;6.346;2024-01-10T14:55:42;1.80;99.90
5218;DHT22;26539;51.064;6.346;2024-01-10T14:58:08;1.90;99.90
5218;DHT22;26539;51.064;6.346;2024-01-10T15:00:33;2.10;99.90
5218;DHT22;26539;51.064;6.346;2024-01-10T15:02:59;2.30;99.90
5218;DHT22;26539;51.064;6.346;2024-01-10T15:05:24;2.40;99.90
5218;DHT22;26539;51.064;6.346;2024-01-10T15:07:51;2.60;99.90
5218;DHT22;26539;51.064;6.346;2024-01-10T15:10:17;2.80;99.90
5218;DHT22;26539;51.064;6.346;2024-01-10T15:12:43;2.70;99.90
5218;DHT22;26539;51.064;6.346;2024-01-10T15:15:09;2.60;99.90
5218;DHT22;26539;51.064;6.346;2024-01-10T15:17:36;2.40;99.90
5218;DHT22;26539;51.064;6.346;2024-01-10T15:20:02;2.40;99.90
5218;DHT22;26539;51.064;6.346;2024-01-10T15:22:27;2.30;99.90
5218;DHT22;26539;51.064;6.346;2024-01-10T15:24:53;2.10;99.90
5218;DHT22;26539;51.064;6.346;2024-01-10T15:27:18;2.10;99.90
5218;DHT22;26539;51.064;6.346;2024-01-10T15:29:44;2.10;99.90
5218;DHT22;26539;51.064;6.346;2024-01-10T15:32:10;2.00;99.90
5218;DHT22;26539;51.064;6.346;2024-01-10T15:34:35;1.80;99.90
5218;DHT22;26539;51.064;6.346;2024-01-10T15:37:01;1.80;99.90
5218;DHT22;26539;51.064;6.346;2024-01-10T15:39:26;1.60;99.90
5218;DHT22;26539;51.064;6.346;2024-01-10T15:41:52;1.50;99.90
5218;DHT22;26539;51.064;6.346;2024-01-10T15:44:18;1.40;99.90
5218;DHT22;26539;51.064;6.346;2024-01-10T15:46:44;1.30;99.90
5218;DHT22;26539;51.064;6.346;2024-01-10T15:49:11;1.10;99.90
5218;DHT22;26539;51.064;6.346;2024-01-10T15:51:37;1.00;99.90
5218;DHT22;26539;51.064;6.346;2024-01-10T15:54:03;1.00;99.90
5218;DHT22;26539;51.064;6.346;2024-01-10T15:56:28;0.90;99.90
5218;DHT22;26539;51.064;6.346;2024-01-10T15:58:55;0.70;99.90
5218;DHT22;26539;51.064;6.346;2024-01-10T16:01:22;0.70;99.90
5218;DHT22;26539;51.064;6.346;2024-01-10T16:03:47;0.70;99.90
5218;DHT22;26539;51.064;6.346;2024-01-10T16:06:13;0.60;99.90
5218;DHT22;26539;51.064;6.346;2024-01-10T16:08:39;0.50;99.90